Time,TemperatureF,DewpointF,PressureIn,WindDirection,WindDirectionDegrees,WindSpeedMPH,WindSpeedGustMPH,Humidity,HourlyPrecipIn,Conditions,Clouds,dailyrainin,SoftwareType,DateUTC
2013-06-15 00:00:00,77.7,71.0,30.04,East,92,0.0,9.0,80,0.00,,,0.00,VWS V14.01,2013-06-15 05:00:00,
2013-06-15 00:01:00,77.7,71.0,30.04,East,92,0.0,0.0,80,0.00,,,0.00,VWS V14.01,2013-06-15 05:01:00,
2013-06-15 00:06:00,77.5,70.8,30.05,SE,145,3.0,3.0,80,0.00,,,0.00,VWS V14.01,2013-06-15 05:06:00,
2013-06-15 00:11:00,77.5,70.8,30.05,South,172,0.0,2.0,80,0.00,,,0.00,VWS V14.01,2013-06-15 05:11:00,
2013-06-15 00:16:00,77.4,70.8,30.05,SE,138,1.5,4.0,80,0.00,,,0.00,VWS V14.01,2013-06-15 05:16:00,
2013-06-15 00:21:00,77.4,70.4,30.05,SSE,155,1.5,4.0,79,0.00,,,0.00,VWS V14.01,2013-06-15 05:21:00,
2013-06-15 00:26:00,77.3,70.3,30.05,South,184,4.5,4.5,79,0.00,,,0.00,VWS V14.01,2013-06-15 05:26:00,
2013-06-15 00:31:00,77.3,69.9,30.05,SE,132,4.5,5.0,78,0.00,,,0.00,VWS V14.01,2013-06-15 05:31:00,
2013-06-15 00:36:00,77.4,70.0,30.05,South,180,3.0,5.0,78,0.00,,,0.00,VWS V14.01,2013-06-15 05:36:00,
2013-06-15 00:41:00,77.4,70.0,30.05,SSW,211,3.0,5.0,78,0.00,,,0.00,VWS V14.01,2013-06-15 05:41:00,
2013-06-15 00:46:00,77.4,69.6,30.05,South,184,7.5,7.5,77,0.00,,,0.00,VWS V14.01,2013-06-15 05:46:00,
2013-06-15 00:51:00,77.4,69.6,30.05,SSE,167,3.0,7.0,77,0.00,,,0.00,VWS V14.01,2013-06-15 05:51:00,
2013-06-15 00:56:00,77.3,69.5,30.05,SE,126,3.0,7.0,77,0.00,,,0.00,VWS V14.01,2013-06-15 05:56:00,
2013-06-15 01:00:00,77.7,71.0,30.04,East,92,0.0,9.0,80,0.00,,,0.00,VWS V15.00,2013-06-15 06:00:00,
2013-06-15 01:01:00,77.3,69.2,30.05,SW,219,6.0,7.0,76,0.00,,,0.00,VWS V14.01,2013-06-15 06:01:00,
2013-06-15 01:06:00,77.3,69.2,30.05,SSE,152,1.5,7.0,76,0.00,,,0.00,VWS V14.01,2013-06-15 06:06:00,
2013-06-15 01:11:00,77.3,68.8,30.05,South,169,4.5,7.0,75,0.00,,,0.00,VWS V14.01,2013-06-15 06:11:00,
2013-06-15 01:16:00,77.2,68.7,30.05,SE,143,6.0,8.0,75,0.00,,,0.00,VWS V14.01,2013-06-15 06:16:00,
2013-06-15 01:21:00,77.2,68.3,30.05,South,184,6.0,8.0,74,0.00,,,0.00,VWS V14.01,2013-06-15 06:21:00,
2013-06-15 01:26:00,77.1,68.2,30.05,South,174,1.5,8.0,74,0.00,,,0.00,VWS V14.01,2013-06-15 06:26:00,
2013-06-15 01:31:00,77.0,68.1,30.04,South,170,3.0,8.0,74,0.00,,,0.00,VWS V14.01,2013-06-15 06:31:00,
2013-06-15 01:36:00,76.9,68.0,30.04,SSE,168,4.5,8.0,74,0.00,,,0.00,VWS V14.01,2013-06-15 06:36:00,
2013-06-15 01:41:00,76.9,68.0,30.04,South,169,1.5,8.0,74,0.00,,,0.00,VWS V14.01,2013-06-15 06:41:00,
2013-06-15 01:46:00,76.8,67.9,30.04,South,187,6.0,8.0,74,0.00,,,0.00,VWS V14.01,2013-06-15 06:46:00,
2013-06-15 01:51:00,76.8,67.9,30.04,SSE,149,1.5,8.0,74,0.00,,,0.00,VWS V14.01,2013-06-15 06:51:00,
2013-06-15 01:56:00,76.8,67.9,30.04,SSE,166,4.5,8.0,74,0.00,,,0.00,VWS V14.01,2013-06-15 06:56:00,
2013-06-15 02:00:00,76.7,67.8,30.04,South,180,7.5,8.0,74,0.00,,,0.00,VWS V14.01,2013-06-15 07:00:00,
2013-06-15 02:01:00,76.7,67.8,30.04,SE,143,3.0,5.0,74,0.00,,,0.00,VWS V14.01,2013-06-15 07:01:00,
2013-06-15 02:06:00,76.6,67.7,30.04,SSE,155,3.0,6.0,74,0.00,,,0.00,VWS V14.01,2013-06-15 07:06:00,
2013-06-15 02:11:00,76.4,67.5,30.04,SSE,165,0.0,6.0,74,0.00,,,0.00,VWS V14.01,2013-06-15 07:11:00,
2013-06-15 02:16:00,76.3,67.4,30.04,ESE,105,3.0,6.0,74,0.00,,,0.00,VWS V14.01,2013-06-15 07:16:00,
2013-06-15 02:21:00,76.3,67.4,30.04,South,188,4.5,6.0,74,0.00,,,0.00,VWS V14.01,2013-06-15 07:21:00,
2013-06-15 02:26:00,76.1,67.2,30.04,South,176,6.0,6.0,74,0.00,,,0.00,VWS V14.01,2013-06-15 07:26:00,
2013-06-15 02:31:00,76.0,67.1,30.04,South,170,1.5,7.0,74,0.00,,,0.00,VWS V14.01,2013-06-15 07:31:00,
2013-06-15 02:36:00,75.9,67.4,30.04,SSE,162,6.0,7.0,75,0.00,,,0.00,VWS V14.01,2013-06-15 07:36:00,
2013-06-15 02:41:00,75.8,67.3,30.04,SSW,200,6.0,7.0,75,0.00,,,0.00,VWS V14.01,2013-06-15 07:41:00,
2013-06-15 02:46:00,75.8,66.9,30.04,SE,135,4.5,7.0,74,0.00,,,0.00,VWS V14.01,2013-06-15 07:46:00,
2013-06-15 02:51:00,75.7,67.2,30.05,SE,145,1.5,7.0,75,0.00,,,0.00,VWS V14.01,2013-06-15 07:51:00,
2013-06-15 02:56:00,75.7,66.8,30.04,SSE,167,1.5,7.0,74,0.00,,,0.00,VWS V14.01,2013-06-15 07:56:00,
2013-06-15 03:00:00,76.7,67.8,30.04,South,180,7.5,8.0,74,0.00,,,0.00,VWS V15.00,2013-06-15 08:00:00,
2013-06-15 03:01:00,75.6,66.7,30.04,South,187,3.0,7.0,74,0.00,,,0.00,VWS V14.01,2013-06-15 08:01:00,
2013-06-15 03:06:00,75.5,67.0,30.04,SE,146,1.5,7.0,75,0.00,,,0.00,VWS V14.01,2013-06-15 08:06:00,
2013-06-15 03:11:00,75.3,66.8,30.04,SE,143,1.5,7.0,75,0.00,,,0.00,VWS V14.01,2013-06-15 08:11:00,
2013-06-15 03:16:00,75.3,66.8,30.04,SSE,167,3.0,7.0,75,0.00,,,0.00,VWS V14.01,2013-06-15 08:16:00,
2013-06-15 03:21:00,75.1,66.6,30.04,SW,214,1.5,7.0,75,0.00,,,0.00,VWS V14.01,2013-06-15 08:21:00,
2013-06-15 03:26:00,75.1,66.6,30.04,ESE,120,0.0,7.0,75,0.00,,,0.00,VWS V14.01,2013-06-15 08:26:00,
2013-06-15 03:31:00,75.1,66.6,30.05,South,169,0.0,7.0,75,0.00,,,0.00,VWS V14.01,2013-06-15 08:31:00,
2013-06-15 03:36:00,74.9,66.4,30.04,SSE,164,0.0,7.0,75,0.00,,,0.00,VWS V14.01,2013-06-15 08:36:00,
2013-06-15 03:41:00,74.8,66.3,30.04,SE,143,1.5,7.0,75,0.00,,,0.00,VWS V14.01,2013-06-15 08:41:00,
2013-06-15 03:46:00,74.7,66.6,30.04,East,98,0.0,7.0,76,0.00,,,0.00,VWS V14.01,2013-06-15 08:46:00,
2013-06-15 03:51:00,74.5,66.4,30.04,SE,139,1.5,7.0,76,0.00,,,0.00,VWS V14.01,2013-06-15 08:51:00,
2013-06-15 03:56:00,74.5,66.4,30.04,SSE,165,1.5,7.0,76,0.00,,,0.00,VWS V14.01,2013-06-15 08:56:00,
2013-06-15 04:00:00,74.4,66.3,30.04,SSE,167,1.5,7.0,76,0.00,,,0.00,VWS V14.01,2013-06-15 09:00:00,
2013-06-15 04:01:00,74.4,66.3,30.04,SSW,197,1.5,3.0,76,0.00,,,0.00,VWS V14.01,2013-06-15 09:01:00,
2013-06-15 04:06:00,74.4,66.3,30.04,SE,124,1.5,5.0,76,0.00,,,0.00,VWS V14.01,2013-06-15 09:06:00,
2013-06-15 04:11:00,74.3,66.2,30.04,SSE,160,1.5,5.0,76,0.00,,,0.00,VWS V14.01,2013-06-15 09:11:00,
2013-06-15 04:16:00,74.2,66.2,30.04,SSW,204,0.0,5.0,76,0.00,,,0.00,VWS V14.01,2013-06-15 09:16:00,
2013-06-15 04:21:00,74.0,66.3,30.05,ESE,108,1.5,5.0,77,0.00,,,0.00,VWS V14.01,2013-06-15 09:21:00,
2013-06-15 04:26:00,74.0,66.3,30.05,SSE,156,0.0,5.0,77,0.00,,,0.00,VWS V14.01,2013-06-15 09:26:00,
2013-06-15 04:31:00,73.9,66.2,30.05,SSE,155,0.0,5.0,77,0.00,,,0.00,VWS V14.01,2013-06-15 09:31:00,
2013-06-15 04:36:00,73.7,66.4,30.05,SSE,155,0.0,5.0,78,0.00,,,0.00,VWS V14.01,2013-06-15 09:36:00,
2013-06-15 04:41:00,73.4,66.1,30.05,SSW,200,0.0,5.0,78,0.00,,,0.00,VWS V14.01,2013-06-15 09:41:00,
2013-06-15 04:46:00,73.4,66.1,30.05,SSE,160,1.5,5.0,78,0.00,,,0.00,VWS V14.01,2013-06-15 09:46:00,
2013-06-15 04:51:00,73.3,66.0,30.05,South,173,1.5,5.0,78,0.00,,,0.00,VWS V14.01,2013-06-15 09:51:00,
2013-06-15 04:56:00,73.2,65.9,30.04,South,180,1.5,5.0,78,0.00,,,0.00,VWS V14.01,2013-06-15 09:56:00,
2013-06-15 05:00:00,74.4,66.3,30.04,SSE,167,1.5,7.0,76,0.00,,,0.00,VWS V15.00,2013-06-15 10:00:00,
2013-06-15 05:01:00,73.2,65.9,30.04,SSE,158,3.0,5.0,78,0.00,,,0.00,VWS V14.01,2013-06-15 10:01:00,
2013-06-15 05:06:00,73.3,66.0,30.04,SSE,162,0.0,5.0,78,0.00,,,0.00,VWS V14.01,2013-06-15 10:06:00,
2013-06-15 05:11:00,73.2,65.9,30.04,SSE,165,1.5,5.0,78,0.00,,,0.00,VWS V14.01,2013-06-15 10:11:00,
2013-06-15 05:16:00,73.2,65.9,30.04,SSW,197,0.0,5.0,78,0.00,,,0.00,VWS V14.01,2013-06-15 10:16:00,
2013-06-15 05:21:00,73.0,65.7,30.04,SSW,195,0.0,5.0,78,0.00,,,0.00,VWS V14.01,2013-06-15 10:21:00,
2013-06-15 05:26:00,72.9,65.7,30.05,SW,233,0.0,5.0,78,0.00,,,0.00,VWS V14.01,2013-06-15 10:26:00,
2013-06-15 05:31:00,72.8,65.9,30.05,SW,232,0.0,5.0,79,0.00,,,0.00,VWS V14.01,2013-06-15 10:31:00,
2013-06-15 05:36:00,72.8,65.9,30.05,South,179,0.0,5.0,79,0.00,,,0.00,VWS V14.01,2013-06-15 10:36:00,
2013-06-15 05:41:00,72.8,65.6,30.05,South,180,1.5,5.0,78,0.00,,,0.00,VWS V14.01,2013-06-15 10:41:00,
2013-06-15 05:46:00,72.7,65.8,30.05,SE,136,0.0,5.0,79,0.00,,,0.00,VWS V14.01,2013-06-15 10:46:00,
2013-06-15 05:51:00,72.6,65.7,30.05,SE,136,0.0,5.0,79,0.00,,,0.00,VWS V14.01,2013-06-15 10:51:00,
2013-06-15 05:56:00,72.5,65.6,30.04,SE,136,0.0,5.0,79,0.00,,,0.00,VWS V14.01,2013-06-15 10:56:00,
2013-06-15 06:00:00,72.4,65.5,30.05,SE,137,0.0,5.0,79,0.00,,,0.00,VWS V14.01,2013-06-15 11:00:00,
2013-06-15 06:01:00,72.3,65.4,30.05,SE,136,0.0,0.0,79,0.00,,,0.00,VWS V14.01,2013-06-15 11:01:00,
2013-06-15 06:06:00,72.2,66.1,30.04,SE,135,0.0,1.0,81,0.00,,,0.00,VWS V14.01,2013-06-15 11:06:00,
2013-06-15 06:11:00,71.8,65.7,30.04,SE,135,0.0,1.0,81,0.00,,,0.00,VWS V14.01,2013-06-15 11:11:00,
2013-06-15 06:16:00,71.7,65.6,30.05,SE,135,0.0,1.0,81,0.00,,,0.00,VWS V14.01,2013-06-15 11:16:00,
2013-06-15 06:21:00,71.5,65.7,30.05,SE,136,0.0,1.0,82,0.00,,,0.00,VWS V14.01,2013-06-15 11:21:00,
2013-06-15 06:26:00,71.4,65.6,30.05,SE,136,0.0,1.0,82,0.00,,,0.00,VWS V14.01,2013-06-15 11:26:00,
2013-06-15 06:31:00,71.3,65.5,30.05,SE,136,0.0,1.0,82,0.00,,,0.00,VWS V14.01,2013-06-15 11:31:00,
2013-06-15 06:36:00,71.3,65.9,30.05,SE,136,0.0,1.0,83,0.00,,,0.00,VWS V14.01,2013-06-15 11:36:00,
2013-06-15 06:41:00,71.3,65.9,30.05,SE,136,0.0,1.0,83,0.00,,,0.00,VWS V14.01,2013-06-15 11:41:00,
2013-06-15 06:46:00,71.4,66.0,30.05,SE,136,0.0,1.0,83,0.00,,,0.00,VWS V14.01,2013-06-15 11:46:00,
2013-06-15 06:51:00,71.5,65.7,30.05,SE,137,0.0,1.0,82,0.00,,,0.00,VWS V14.01,2013-06-15 11:51:00,
2013-06-15 06:56:00,71.6,66.2,30.05,SE,136,0.0,1.0,83,0.00,,,0.00,VWS V14.01,2013-06-15 11:56:00,
2013-06-15 07:01:00,71.7,66.6,30.05,SE,136,0.0,1.0,84,0.00,,,0.00,VWS V14.01,2013-06-15 12:01:00,
2013-06-15 07:06:00,71.8,66.7,30.05,SE,136,0.0,1.0,84,0.00,,,0.00,VWS V14.01,2013-06-15 12:06:00,
2013-06-15 07:11:00,72.8,66.6,30.05,SE,136,0.0,1.0,81,0.00,,,0.00,VWS V14.01,2013-06-15 12:11:00,
2013-06-15 07:16:00,73.5,67.0,30.05,SSE,148,0.0,2.0,80,0.00,,,0.00,VWS V14.01,2013-06-15 12:16:00,
2013-06-15 07:21:00,73.5,67.0,30.05,SSE,159,0.0,2.0,80,0.00,,,0.00,VWS V14.01,2013-06-15 12:21:00,
2013-06-15 07:26:00,73.7,66.4,30.05,SSE,166,0.0,2.0,78,0.00,,,0.00,VWS V14.01,2013-06-15 12:26:00,
2013-06-15 07:30:00,74.3,67.4,30.05,SSE,168,0.0,2.0,79,0.00,,,0.00,VWS V14.01,2013-06-15 12:30:00,
2013-06-15 07:35:00,74.4,66.7,30.05,SSE,149,0.0,2.0,77,0.00,,,0.00,VWS V14.01,2013-06-15 12:35:00,
2013-06-15 07:40:00,74.3,65.9,30.05,South,169,1.5,4.0,75,0.00,,,0.00,VWS V14.01,2013-06-15 12:40:00,
2013-06-15 07:45:00,74.3,65.9,30.05,South,187,4.5,4.5,75,0.00,,,0.00,VWS V14.01,2013-06-15 12:45:00,
2013-06-15 07:50:00,74.3,66.2,30.05,ESE,113,1.5,4.0,76,0.00,,,0.00,VWS V14.01,2013-06-15 12:50:00,
2013-06-15 07:55:00,74.4,66.3,30.05,South,191,0.0,4.0,76,0.00,,,0.00,VWS V14.01,2013-06-15 12:55:00,
2013-06-15 08:00:00,74.6,66.2,30.05,SSE,162,3.0,3.0,75,0.00,,,0.00,VWS V14.01,2013-06-15 13:00:00,
2013-06-15 08:06:00,74.6,66.2,30.05,South,169,1.5,2.0,75,0.00,,,0.00,VWS V14.01,2013-06-15 13:06:00,
2013-06-15 08:10:00,75.3,66.4,30.05,SE,131,1.5,4.0,74,0.00,,,0.00,VWS V14.01,2013-06-15 13:10:00,
2013-06-15 08:15:00,76.2,66.5,30.06,SSE,153,3.0,5.0,72,0.00,,,0.00,VWS V14.01,2013-06-15 13:15:00,
2013-06-15 08:20:00,76.5,66.4,30.06,SE,142,3.0,5.0,71,0.00,,,0.00,VWS V14.01,2013-06-15 13:20:00,
2013-06-15 08:25:00,77.4,67.3,30.06,South,172,0.0,5.0,71,0.00,,,0.00,VWS V14.01,2013-06-15 13:25:00,
2013-06-15 08:30:00,78.3,67.3,30.06,ENE,78,3.0,5.0,69,0.00,,,0.00,VWS V14.01,2013-06-15 13:30:00,
2013-06-15 08:35:00,78.9,67.0,30.06,SSE,155,1.5,5.0,67,0.00,,,0.00,VWS V14.01,2013-06-15 13:35:00,
2013-06-15 08:40:00,79.0,67.1,30.06,SSE,151,1.5,5.0,67,0.00,,,0.00,VWS V14.01,2013-06-15 13:40:00,
2013-06-15 08:45:00,79.4,67.1,30.06,SSW,203,3.0,6.0,66,0.00,,,0.00,VWS V14.01,2013-06-15 13:45:00,
2013-06-15 08:50:00,79.8,67.9,30.06,South,174,3.0,6.0,67,0.00,,,0.00,VWS V14.01,2013-06-15 13:50:00,
2013-06-15 08:55:00,79.3,66.5,30.07,SE,132,7.5,7.5,65,0.00,,,0.00,VWS V14.01,2013-06-15 13:55:00,
2013-06-15 09:00:00,78.6,66.3,30.07,South,185,3.0,6.0,66,0.00,,,0.00,VWS V14.01,2013-06-15 14:00:00,
2013-06-15 09:05:00,78.3,67.3,30.07,ENE,75,3.0,6.0,69,0.00,,,0.00,VWS V14.01,2013-06-15 14:05:00,
2013-06-15 09:10:00,78.3,66.9,30.07,South,174,1.5,6.0,68,0.00,,,0.00,VWS V14.01,2013-06-15 14:10:00,
2013-06-15 09:15:00,78.3,66.9,30.07,SSE,163,3.0,6.0,68,0.00,,,0.00,VWS V14.01,2013-06-15 14:15:00,
2013-06-15 09:20:00,78.0,66.6,30.07,SSE,156,4.5,6.0,68,0.00,,,0.00,VWS V14.01,2013-06-15 14:20:00,
2013-06-15 09:25:00,78.2,67.6,30.08,South,173,6.0,6.0,70,0.00,,,0.00,VWS V14.01,2013-06-15 14:25:00,
2013-06-15 09:30:00,78.7,67.3,30.07,SSE,166,3.0,6.0,68,0.00,,,0.00,VWS V14.01,2013-06-15 14:30:00,
2013-06-15 09:35:00,79.4,68.3,30.07,South,174,1.5,6.0,69,0.00,,,0.00,VWS V14.01,2013-06-15 14:35:00,
2013-06-15 09:40:00,80.2,68.7,30.07,SSW,196,0.0,6.0,68,0.00,,,0.00,VWS V14.01,2013-06-15 14:40:00,
2013-06-15 09:45:00,81.0,69.9,30.07,South,181,3.0,6.0,69,0.00,,,0.00,VWS V14.01,2013-06-15 14:45:00,
2013-06-15 09:50:00,81.3,68.9,30.07,SSW,202,3.0,6.0,66,0.00,,,0.00,VWS V14.01,2013-06-15 14:50:00,
2013-06-15 09:55:00,82.0,69.5,30.07,South,170,0.0,6.0,66,0.00,,,0.00,VWS V14.01,2013-06-15 14:55:00,
2013-06-15 10:00:00,82.7,68.8,30.07,SSW,204,1.5,3.0,63,0.00,,,0.00,VWS V14.01,2013-06-15 15:00:00,
2013-06-15 10:05:00,82.8,68.5,30.07,SSE,165,3.0,4.0,62,0.00,,,0.00,VWS V14.01,2013-06-15 15:05:00,
2013-06-15 10:10:00,83.0,69.1,30.07,South,177,4.5,5.0,63,0.00,,,0.00,VWS V14.01,2013-06-15 15:10:00,
2013-06-15 10:15:00,83.2,69.3,30.07,SSE,153,3.0,6.0,63,0.00,,,0.00,VWS V14.01,2013-06-15 15:15:00,
2013-06-15 10:20:00,84.0,71.4,30.07,SW,227,0.0,6.0,66,0.00,,,0.00,VWS V14.01,2013-06-15 15:20:00,
2013-06-15 10:25:00,84.6,70.6,30.07,SE,138,6.0,6.0,63,0.00,,,0.00,VWS V14.01,2013-06-15 15:25:00,
2013-06-15 10:30:00,84.7,70.7,30.07,SSW,203,1.5,6.0,63,0.00,,,0.00,VWS V14.01,2013-06-15 15:30:00,
2013-06-15 10:35:00,85.3,72.2,30.07,South,169,0.0,6.0,65,0.00,,,0.00,VWS V14.01,2013-06-15 15:35:00,
2013-06-15 10:40:00,86.3,71.3,30.07,SSE,164,4.5,6.0,61,0.00,,,0.00,VWS V14.01,2013-06-15 15:40:00,
2013-06-15 10:45:00,86.1,70.6,30.07,South,180,1.5,7.0,60,0.00,,,0.00,VWS V14.01,2013-06-15 15:45:00,
2013-06-15 10:50:00,85.9,70.9,30.07,SSE,156,1.5,7.0,61,0.00,,,0.00,VWS V14.01,2013-06-15 15:50:00,
2013-06-15 10:55:00,86.3,71.3,30.07,South,190,6.0,7.0,61,0.00,,,0.00,VWS V14.01,2013-06-15 15:55:00,
2013-06-15 11:00:00,86.5,71.9,30.07,SSE,149,0.0,7.0,62,0.00,,,0.00,VWS V14.01,2013-06-15 16:00:00,
2013-06-15 11:11:00,86.1,71.1,30.07,SE,145,3.0,3.0,61,0.00,,,0.00,VWS V14.01,2013-06-15 16:11:00,
2013-06-15 11:16:00,86.6,72.0,30.07,South,182,0.0,4.0,62,0.00,,,0.00,VWS V14.01,2013-06-15 16:16:00,
2013-06-15 11:21:00,86.6,71.1,30.07,SE,131,4.5,7.0,60,0.00,,,0.00,VWS V14.01,2013-06-15 16:21:00,
2013-06-15 11:26:00,87.0,71.9,30.07,SSE,160,6.0,7.0,61,0.00,,,0.00,VWS V14.01,2013-06-15 16:26:00,
2013-06-15 11:31:00,87.2,71.6,30.07,SSW,194,1.5,7.0,60,0.00,,,0.00,VWS V14.01,2013-06-15 16:31:00,
2013-06-15 11:36:00,87.2,71.1,30.07,WSW,250,6.0,9.0,59,0.00,,,0.00,VWS V14.01,2013-06-15 16:36:00,
2013-06-15 11:41:00,87.6,72.0,30.07,South,186,4.5,9.0,60,0.00,,,0.00,VWS V14.01,2013-06-15 16:41:00,
2013-06-15 11:46:00,87.9,72.8,30.06,South,173,0.0,9.0,61,0.00,,,0.00,VWS V14.01,2013-06-15 16:46:00,
2013-06-15 11:51:00,88.6,71.9,30.06,SSW,210,1.5,9.0,58,0.00,,,0.00,VWS V14.01,2013-06-15 16:51:00,
2013-06-15 11:56:00,88.4,71.2,30.06,ESE,108,1.5,9.0,57,0.00,,,0.00,VWS V14.01,2013-06-15 16:56:00,
2013-06-15 12:00:00,88.4,71.8,30.06,South,188,0.0,9.0,58,0.00,,,0.00,VWS V14.01,2013-06-15 17:00:00,
2013-06-15 12:01:00,88.4,71.8,30.05,South,188,0.0,0.0,58,0.00,,,0.00,VWS V14.01,2013-06-15 17:01:00,
2013-06-15 12:06:00,89.0,73.3,30.05,ENE,71,0.0,4.0,60,0.00,,,0.00,VWS V14.01,2013-06-15 17:06:00,
2013-06-15 12:11:00,89.2,72.5,30.05,SSW,202,4.5,6.0,58,0.00,,,0.00,VWS V14.01,2013-06-15 17:11:00,
2013-06-15 12:16:00,89.1,73.4,30.05,East,84,3.0,6.0,60,0.00,,,0.00,VWS V14.01,2013-06-15 17:16:00,
2013-06-15 12:21:00,89.1,73.9,30.04,ENE,74,3.0,6.0,61,0.00,,,0.00,VWS V14.01,2013-06-15 17:21:00,
2013-06-15 12:26:00,89.2,73.5,30.04,SSE,157,1.5,6.0,60,0.00,,,0.00,VWS V14.01,2013-06-15 17:26:00,
2013-06-15 12:31:00,89.7,74.0,30.04,SW,214,0.0,6.0,60,0.00,,,0.00,VWS V14.01,2013-06-15 17:31:00,
2013-06-15 12:36:00,89.4,73.2,30.04,SSE,155,0.0,6.0,59,0.00,,,0.00,VWS V14.01,2013-06-15 17:36:00,
2013-06-15 12:41:00,89.2,73.5,30.04,South,172,3.0,6.0,60,0.00,,,0.00,VWS V14.01,2013-06-15 17:41:00,
2013-06-15 12:46:00,89.3,73.1,30.04,SSE,153,3.0,6.0,59,0.00,,,0.00,VWS V14.01,2013-06-15 17:46:00,
2013-06-15 12:51:00,89.3,73.1,30.03,SSW,210,1.5,7.0,59,0.00,,,0.00,VWS V14.01,2013-06-15 17:51:00,
2013-06-15 12:56:00,89.1,73.9,30.03,ENE,73,0.0,7.0,61,0.00,,,0.00,VWS V14.01,2013-06-15 17:56:00,
2013-06-15 13:00:00,88.4,71.8,30.06,South,188,0.0,9.0,58,0.00,,,0.00,VWS V15.00,2013-06-15 18:00:00,
2013-06-15 13:01:00,89.7,73.5,30.03,East,88,4.5,7.0,59,0.00,,,0.00,VWS V14.01,2013-06-15 18:01:00,
2013-06-15 13:06:00,90.1,73.3,30.03,South,177,0.0,7.0,58,0.00,,,0.00,VWS V14.01,2013-06-15 18:06:00,
2013-06-15 13:11:00,90.2,72.9,30.03,SE,131,3.0,7.0,57,0.00,,,0.00,VWS V14.01,2013-06-15 18:11:00,
2013-06-15 13:16:00,89.5,72.3,30.03,East,88,1.5,7.0,57,0.00,,,0.00,VWS V14.01,2013-06-15 18:16:00,
2013-06-15 13:21:00,89.2,73.0,30.03,South,173,1.5,7.0,59,0.00,,,0.00,VWS V14.01,2013-06-15 18:21:00,
2013-06-15 13:26:00,88.9,72.7,30.03,South,180,4.5,8.0,59,0.00,,,0.00,VWS V14.01,2013-06-15 18:26:00,
2013-06-15 13:31:00,88.8,72.6,30.03,South,172,1.5,8.0,59,0.00,,,0.00,VWS V14.01,2013-06-15 18:31:00,
2013-06-15 13:36:00,89.4,75.6,30.03,SSE,162,0.0,8.0,64,0.00,,,0.00,VWS V14.01,2013-06-15 18:36:00,
2013-06-15 13:41:00,89.7,74.5,30.03,South,188,3.0,8.0,61,0.00,,,0.00,VWS V14.01,2013-06-15 18:41:00,
2013-06-15 13:46:00,89.3,73.1,30.03,SSE,162,6.0,8.0,59,0.00,,,0.00,VWS V14.01,2013-06-15 18:46:00,
2013-06-15 13:51:00,89.2,73.0,30.02,SW,218,7.5,8.0,59,0.00,,,0.00,VWS V14.01,2013-06-15 18:51:00,
2013-06-15 13:56:00,89.9,72.6,30.02,WSW,246,3.0,8.0,57,0.00,,,0.00,VWS V14.01,2013-06-15 18:56:00,
2013-06-15 14:00:00,89.9,72.6,30.02,SSE,165,4.5,8.0,57,0.00,,,0.00,VWS V14.01,2013-06-15 19:00:00,
2013-06-15 14:01:00,90.2,73.9,30.02,SW,215,1.5,3.0,59,0.00,,,0.00,VWS V14.01,2013-06-15 19:01:00,
2013-06-15 14:06:00,90.1,72.8,30.02,South,179,6.0,8.0,57,0.00,,,0.00,VWS V14.01,2013-06-15 19:06:00,
2013-06-15 14:11:00,90.6,73.3,30.02,SSE,157,4.5,9.0,57,0.00,,,0.00,VWS V14.01,2013-06-15 19:11:00,
2013-06-15 14:16:00,91.0,73.1,30.02,South,170,10.5,10.5,56,0.00,,,0.00,VWS V14.01,2013-06-15 19:16:00,
2013-06-15 14:21:00,90.9,72.5,30.01,SW,236,4.5,10.0,55,0.00,,,0.00,VWS V14.01,2013-06-15 19:21:00,
2013-06-15 14:26:00,90.5,73.2,30.02,South,187,3.0,11.0,57,0.00,,,0.00,VWS V14.01,2013-06-15 19:26:00,
2013-06-15 14:31:00,90.4,72.1,30.02,SSW,194,4.5,11.0,55,0.00,,,0.00,VWS V14.01,2013-06-15 19:31:00,
2013-06-15 14:36:00,89.6,72.4,30.02,South,170,3.0,11.0,57,0.00,,,0.00,VWS V14.01,2013-06-15 19:36:00,
2013-06-15 14:41:00,89.3,72.6,30.01,South,173,4.5,11.0,58,0.00,,,0.00,VWS V14.01,2013-06-15 19:41:00,
2013-06-15 14:46:00,89.1,72.9,30.01,SSW,208,1.5,11.0,59,0.00,,,0.00,VWS V14.01,2013-06-15 19:46:00,
2013-06-15 14:51:00,89.0,71.8,30.01,SSW,210,3.0,11.0,57,0.00,,,0.00,VWS V14.01,2013-06-15 19:51:00,
2013-06-15 14:56:00,88.9,71.2,30.01,SW,219,3.0,11.0,56,0.00,,,0.00,VWS V14.01,2013-06-15 19:56:00,
2013-06-15 15:00:00,89.9,72.6,30.02,SSE,165,4.5,8.0,57,0.00,,,0.00,VWS V15.00,2013-06-15 20:00:00,
2013-06-15 15:01:00,88.8,71.6,30.00,SSW,205,6.0,11.0,57,0.00,,,0.00,VWS V14.01,2013-06-15 20:01:00,
2013-06-15 15:06:00,88.7,72.0,30.00,South,174,4.5,11.0,58,0.00,,,0.00,VWS V14.01,2013-06-15 20:06:00,
2013-06-15 15:11:00,88.5,71.3,30.00,South,179,4.5,11.0,57,0.00,,,0.00,VWS V14.01,2013-06-15 20:11:00,
2013-06-15 15:16:00,88.4,71.8,30.00,South,183,6.0,11.0,58,0.00,,,0.00,VWS V14.01,2013-06-15 20:16:00,
2013-06-15 15:21:00,87.9,71.8,30.00,South,190,1.5,11.0,59,0.00,,,0.00,VWS V14.01,2013-06-15 20:21:00,
2013-06-15 15:26:00,87.9,71.8,30.00,SE,136,10.5,11.0,59,0.00,,,0.00,VWS V14.01,2013-06-15 20:26:00,
2013-06-15 15:31:00,87.7,71.6,30.00,SW,224,4.5,12.0,59,0.00,,,0.00,VWS V14.01,2013-06-15 20:31:00,
2013-06-15 15:36:00,87.5,71.9,30.00,SSW,200,4.5,12.0,60,0.00,,,0.00,VWS V14.01,2013-06-15 20:36:00,
2013-06-15 15:41:00,87.3,71.7,30.00,South,191,4.5,12.0,60,0.00,,,0.00,VWS V14.01,2013-06-15 20:41:00,
2013-06-15 15:46:00,87.1,72.0,30.00,WSW,238,6.0,12.0,61,0.00,,,0.00,VWS V14.01,2013-06-15 20:46:00,
2013-06-15 15:51:00,87.1,71.5,30.00,South,187,3.0,12.0,60,0.00,,,0.00,VWS V14.01,2013-06-15 20:51:00,
2013-06-15 15:56:00,87.2,71.6,30.00,SSW,204,1.5,12.0,60,0.00,,,0.00,VWS V14.01,2013-06-15 20:56:00,
2013-06-15 16:00:00,87.0,71.9,30.00,SSW,197,7.5,12.0,61,0.00,,,0.00,VWS V14.01,2013-06-15 21:00:00,
2013-06-15 16:01:00,87.0,71.4,30.00,SSE,162,10.5,10.5,60,0.00,,,0.00,VWS V14.01,2013-06-15 21:01:00,
2013-06-15 16:06:00,86.6,71.6,30.00,South,184,7.5,7.5,61,0.00,,,0.00,VWS V14.01,2013-06-15 21:06:00,
2013-06-15 16:11:00,86.4,70.9,30.00,SSE,165,3.0,9.0,60,0.00,,,0.00,VWS V14.01,2013-06-15 21:11:00,
2013-06-15 16:16:00,86.2,71.7,30.00,SE,124,1.5,9.0,62,0.00,,,0.00,VWS V14.01,2013-06-15 21:16:00,
2013-06-15 16:21:00,86.1,71.1,30.01,WSW,242,3.0,9.0,61,0.00,,,0.00,VWS V14.01,2013-06-15 21:21:00,
2013-06-15 16:26:00,85.8,70.3,30.00,SSW,202,6.0,9.0,60,0.00,,,0.00,VWS V14.01,2013-06-15 21:26:00,
2013-06-15 16:31:00,85.6,70.1,30.01,South,183,4.5,9.0,60,0.00,,,0.00,VWS V14.01,2013-06-15 21:31:00,
2013-06-15 16:36:00,85.6,70.6,30.01,South,169,4.5,9.0,61,0.00,,,0.00,VWS V14.01,2013-06-15 21:36:00,
2013-06-15 16:41:00,85.4,70.9,30.01,SSW,194,3.0,9.0,62,0.00,,,0.00,VWS V14.01,2013-06-15 21:41:00,
2013-06-15 16:46:00,85.3,71.8,30.01,South,172,0.0,9.0,64,0.00,,,0.00,VWS V14.01,2013-06-15 21:46:00,
2013-06-15 16:51:00,85.1,71.1,30.00,SSW,207,0.0,9.0,63,0.00,,,0.00,VWS V14.01,2013-06-15 21:51:00,
2013-06-15 16:56:00,85.0,71.5,30.00,SSW,208,1.5,9.0,64,0.00,,,0.00,VWS V14.01,2013-06-15 21:56:00,
2013-06-15 17:00:00,87.0,71.9,30.00,SSW,197,7.5,12.0,61,0.00,,,0.00,VWS V15.00,2013-06-15 22:00:00,
2013-06-15 17:01:00,84.8,71.3,30.00,South,179,0.0,9.0,64,0.00,,,0.00,VWS V14.01,2013-06-15 22:01:00,
2013-06-15 17:06:00,84.6,71.1,30.00,SSE,151,0.0,9.0,64,0.00,,,0.00,VWS V14.01,2013-06-15 22:06:00,
2013-06-15 17:11:00,84.5,71.0,30.00,SSW,208,1.5,9.0,64,0.00,,,0.00,VWS V14.01,2013-06-15 22:11:00,
2013-06-15 17:16:00,84.4,70.9,30.01,SSW,197,1.5,9.0,64,0.00,,,0.00,VWS V14.01,2013-06-15 22:16:00,
2013-06-15 17:21:00,84.3,70.8,30.01,SSE,157,0.0,9.0,64,0.00,,,0.00,VWS V14.01,2013-06-15 22:21:00,
2013-06-15 17:26:00,84.2,70.2,30.01,SSE,167,6.0,9.0,63,0.00,,,0.00,VWS V14.01,2013-06-15 22:26:00,
2013-06-15 17:31:00,84.1,70.6,30.01,SSW,198,0.0,9.0,64,0.00,,,0.00,VWS V14.01,2013-06-15 22:31:00,
2013-06-15 17:36:00,84.1,70.6,30.01,South,187,1.5,9.0,64,0.00,,,0.00,VWS V14.01,2013-06-15 22:36:00,
2013-06-15 17:41:00,84.1,71.1,30.01,SE,133,0.0,9.0,65,0.00,,,0.00,VWS V14.01,2013-06-15 22:41:00,
2013-06-15 17:46:00,84.0,70.5,30.01,SE,137,0.0,9.0,64,0.00,,,0.00,VWS V14.01,2013-06-15 22:46:00,
2013-06-15 17:51:00,83.8,68.9,30.01,South,172,7.5,9.0,61,0.00,,,0.00,VWS V14.01,2013-06-15 22:51:00,
2013-06-15 17:56:00,83.7,68.8,30.01,SSW,194,0.0,9.0,61,0.00,,,0.00,VWS V14.01,2013-06-15 22:56:00,
2013-06-15 18:00:00,83.5,68.2,30.01,South,179,3.0,9.0,60,0.00,,,0.00,VWS V14.01,2013-06-15 23:00:00,
2013-06-15 18:01:00,83.5,68.7,30.01,SW,218,0.0,2.0,61,0.00,,,0.00,VWS V14.01,2013-06-15 23:01:00,
2013-06-15 18:06:00,83.3,68.9,30.01,SSE,151,0.0,2.0,62,0.00,,,0.00,VWS V14.01,2013-06-15 23:06:00,
2013-06-15 18:11:00,83.3,69.9,30.02,SSE,163,0.0,2.0,64,0.00,,,0.00,VWS V14.01,2013-06-15 23:11:00,
2013-06-15 18:16:00,83.0,72.2,30.02,NW,308,0.0,2.0,70,0.00,,,0.00,VWS V14.01,2013-06-15 23:16:00,
2013-06-15 18:21:00,82.4,72.9,30.02,ENE,74,0.0,3.0,73,0.00,,,0.00,VWS V14.01,2013-06-15 23:21:00,
2013-06-15 18:26:00,81.9,73.2,30.02,NW,304,0.0,3.0,75,0.00,,,0.00,VWS V14.01,2013-06-15 23:26:00,
2013-06-15 18:31:00,81.5,72.8,30.02,NW,313,4.5,4.5,75,0.00,,,0.00,VWS V14.01,2013-06-15 23:31:00,
2013-06-15 18:36:00,81.1,72.8,30.02,NW,305,0.0,5.0,76,0.00,,,0.00,VWS V14.01,2013-06-15 23:36:00,
2013-06-15 18:41:00,80.5,72.2,30.02,NNE,21,3.0,6.0,76,0.00,,,0.00,VWS V14.01,2013-06-15 23:41:00,
2013-06-15 18:46:00,80.1,71.9,30.02,North,6,6.0,11.0,76,0.00,,,0.00,VWS V14.01,2013-06-15 23:46:00,
2013-06-15 18:51:00,79.3,71.5,30.03,ENE,71,0.0,11.0,77,0.00,,,0.00,VWS V14.01,2013-06-15 23:51:00,
2013-06-15 19:00:00,83.5,68.2,30.01,South,179,3.0,9.0,60,0.00,,,0.00,VWS V15.00,2013-06-16 00:00:00,
2013-06-15 20:00:00,78.3,73.8,30.06,NNE,22,3.0,12.0,86,0.00,,,0.00,VWS V14.01,2013-06-16 01:00:00,
2013-06-15 21:00:00,78.3,73.8,30.06,NNE,22,3.0,12.0,86,0.00,,,0.00,VWS V15.00,2013-06-16 02:00:00,
2013-06-15 22:21:00,78.3,73.8,30.06,NNE,22,3.0,12.0,86,0.00,,,0.00,VWS V14.01,2013-06-16 03:21:00,
2013-06-15 22:26:00,70.2,68.7,30.03,SSE,165,3.0,6.0,95,0.15,,,0.11,VWS V14.01,2013-06-16 03:26:00,
2013-06-15 22:31:00,70.2,68.7,30.04,East,95,3.0,6.0,95,0.15,,,0.11,VWS V14.01,2013-06-16 03:31:00,
2013-06-15 22:36:00,70.3,68.8,30.06,SSE,160,4.5,7.0,95,0.15,,,0.11,VWS V14.01,2013-06-16 03:36:00,
2013-06-15 22:41:00,70.3,68.8,30.08,South,169,4.5,7.0,95,0.15,,,0.11,VWS V14.01,2013-06-16 03:41:00,
2013-06-15 22:46:00,70.3,68.8,30.08,South,190,1.5,7.0,95,0.15,,,0.11,VWS V14.01,2013-06-16 03:46:00,
2013-06-15 22:51:00,70.3,68.8,30.08,South,183,0.0,7.0,95,0.15,,,0.11,VWS V14.01,2013-06-16 03:51:00,
2013-06-15 22:56:00,70.2,68.7,30.08,SSE,152,0.0,7.0,95,0.15,,,0.11,VWS V14.01,2013-06-16 03:56:00,
2013-06-15 23:01:00,70.2,68.7,30.08,South,169,3.0,7.0,95,0.15,,,0.11,VWS V14.01,2013-06-16 04:01:00,
2013-06-15 23:06:00,70.3,68.8,30.08,South,180,1.5,7.0,95,0.15,,,0.11,VWS V14.01,2013-06-16 04:06:00,
2013-06-15 23:11:00,70.3,68.8,30.08,SSE,160,1.5,7.0,95,0.15,,,0.11,VWS V14.01,2013-06-16 04:11:00,
2013-06-15 23:16:00,70.5,69.3,30.08,South,173,1.5,7.0,96,0.15,,,0.11,VWS V14.01,2013-06-16 04:16:00,
2013-06-15 23:21:00,70.5,69.3,30.07,ESE,106,1.5,7.0,96,0.15,,,0.11,VWS V14.01,2013-06-16 04:21:00,
2013-06-15 23:26:00,70.5,69.3,30.07,SSE,155,1.5,7.0,96,0.15,,,0.11,VWS V14.01,2013-06-16 04:26:00,
2013-06-15 23:31:00,70.6,69.4,30.06,SSE,158,1.5,7.0,96,0.16,,,0.12,VWS V14.01,2013-06-16 04:31:00,
2013-06-15 23:36:00,70.6,69.4,30.06,SSE,166,0.0,7.0,96,0.16,,,0.12,VWS V14.01,2013-06-16 04:36:00,
2013-06-15 23:41:00,70.6,69.4,30.06,SSW,210,1.5,7.0,96,0.17,,,0.13,VWS V14.01,2013-06-16 04:41:00,
2013-06-15 23:46:00,70.6,69.4,30.06,SE,142,0.0,7.0,96,0.18,,,0.14,VWS V14.01,2013-06-16 04:46:00,
2013-06-15 23:51:00,70.6,69.4,30.05,SSW,205,3.0,7.0,96,0.18,,,0.14,VWS V14.01,2013-06-16 04:51:00,
2013-06-15 23:56:00,70.6,69.4,30.05,SE,132,6.0,7.0,96,0.19,,,0.15,VWS V14.01,2013-06-16 04:56:00,